createdAt,value
2023-04-29T00:01:33.347Z,98435.34
2023-04-29T00:04:00.342Z,98436.16
2023-04-29T00:06:28.544Z,98436.47
2023-04-29T00:08:55.855Z,98432.50
2023-04-29T00:11:24.760Z,98440.66
2023-04-29T00:13:51.542Z,98431.06
2023-04-29T00:16:18.657Z,98427.69
2023-04-29T00:18:48.751Z,98426.59
2023-04-29T00:21:15.938Z,98427.41
2023-04-29T00:23:42.786Z,98422.75
2023-04-29T00:26:09.640Z,98431.72
2023-04-29T00:28:36.440Z,98429.94
2023-04-29T00:31:03.404Z,98426.91
2023-04-29T00:33:33.240Z,98429.16
2023-04-29T00:36:07.553Z,98428.34
2023-04-29T00:38:34.470Z,98430.78
2023-04-29T00:41:02.609Z,98427.56
2023-04-29T00:43:30.750Z,98433.97
2023-04-29T00:45:57.728Z,98433.50
2023-04-29T00:48:24.734Z,98445.03
2023-04-29T00:50:51.944Z,98445.69
2023-04-29T00:53:18.968Z,98447.63
2023-04-29T00:55:48.361Z,98445.19
2023-04-29T00:58:15.530Z,98440.88
2023-04-29T01:00:43.956Z,98445.38
2023-04-29T01:03:11.211Z,98442.97
2023-04-29T01:05:38.596Z,98443.28
2023-04-29T01:08:49.421Z,98439.13
2023-04-29T01:11:23.808Z,98448.56
2023-04-29T01:14:03.339Z,98442.66
2023-04-29T01:16:59.638Z,98439.78
2023-04-29T01:19:48.190Z,98444.59
2023-04-29T01:22:17.617Z,98434.00
2023-04-29T01:24:44.914Z,98444.09
2023-04-29T01:27:39.712Z,98444.09
2023-04-29T01:30:27.589Z,98448.09
2023-04-29T01:33:15.568Z,98444.09
2023-04-29T01:36:22.113Z,98445.53
2023-04-29T01:39:16.524Z,98448.25
2023-04-29T01:41:45.207Z,98442.34
2023-04-29T01:44:21.926Z,98447.00
2023-04-29T01:46:54.435Z,98438.66
2023-04-29T01:49:29.168Z,98434.34
2023-04-29T01:51:56.377Z,98437.06
2023-04-29T01:54:23.476Z,98440.09
2023-04-29T01:56:50.947Z,98439.94
2023-04-29T01:59:17.915Z,98444.56
2023-04-29T02:01:44.714Z,98439.59
2023-04-29T02:04:11.628Z,98450.19
2023-04-29T02:06:38.417Z,98442.66
2023-04-29T02:09:05.415Z,98439.59
2023-04-29T02:11:32.157Z,98437.69
2023-04-29T02:13:58.934Z,98441.06
2023-04-29T02:16:26.116Z,98441.72
2023-04-29T02:18:53.451Z,98445.38
2023-04-29T02:21:22.779Z,98445.72
2023-04-29T02:23:50.496Z,98452.28
2023-04-29T02:26:17.451Z,98449.22
2023-04-29T02:28:44.340Z,98451.63
2023-04-29T02:31:11.180Z,98453.22
2023-04-29T02:33:38.045Z,98450.50
2023-04-29T02:36:05.376Z,98455.31
2023-04-29T02:38:32.901Z,98455.31
2023-04-29T02:40:59.832Z,98451.94
2023-04-29T02:43:26.729Z,98460.44
2023-04-29T02:45:56.212Z,98465.06
2023-04-29T02:48:23.396Z,98463.00
2023-04-29T02:50:50.520Z,98464.59
2023-04-29T02:53:17.375Z,98464.75
2023-04-29T02:55:44.198Z,98460.25
2023-04-29T02:58:11.026Z,98459.13
2023-04-29T03:00:37.984Z,98464.88
2023-04-29T03:03:05.059Z,98464.56
2023-04-29T03:05:32.102Z,98461.84
2023-04-29T03:07:58.970Z,98468.09
2023-04-29T03:10:26.188Z,98468.38
2023-04-29T03:12:58.022Z,98476.88
2023-04-29T03:15:24.866Z,98474.16
2023-04-29T03:17:52.150Z,98471.75
2023-04-29T03:20:19.499Z,98477.63
2023-04-29T03:22:46.599Z,98469.00
2023-04-29T03:25:13.490Z,98464.03
2023-04-29T03:27:40.327Z,98466.13
2023-04-29T03:30:09.051Z,98467.06
2023-04-29T03:32:35.979Z,98464.50
2023-04-29T03:35:03.383Z,98458.72
2023-04-29T03:37:30.192Z,98457.31
2023-04-29T03:39:57.247Z,98460.31
2023-04-29T03:42:24.305Z,98460.31
2023-04-29T03:44:51.128Z,98463.03
2023-04-29T03:47:18.292Z,98466.38
2023-04-29T03:49:45.836Z,98464.00
2023-04-29T03:52:12.768Z,98474.06
2023-04-29T03:54:39.617Z,98476.63
2023-04-29T03:57:06.450Z,98480.94
2023-04-29T03:59:33.173Z,98477.88
2023-04-29T04:02:00.431Z,98479.50
2023-04-29T04:04:30.449Z,98482.53
2023-04-29T04:06:57.807Z,98481.91
2023-04-29T04:09:24.602Z,98487.00
2023-04-29T04:11:51.311Z,98493.25
2023-04-29T04:14:18.915Z,98490.41
2023-04-29T04:16:45.875Z,98492.34
2023-04-29T04:19:12.772Z,98499.38
2023-04-29T04:21:39.636Z,98498.75
2023-04-29T04:24:07.295Z,98494.44
2023-04-29T04:26:34.332Z,98508.72
2023-04-29T04:29:01.128Z,98500.72
2023-04-29T04:31:28.617Z,98507.44
2023-04-29T04:33:56.656Z,98503.13
2023-04-29T04:36:23.505Z,98511.91
2023-04-29T04:38:50.452Z,98518.13
2023-04-29T04:41:17.634Z,98513.19
2023-04-29T04:43:45.021Z,98517.97
2023-04-29T04:46:15.105Z,98524.38
2023-04-29T04:48:42.705Z,98527.28
2023-04-29T04:51:14.048Z,98538.66
2023-04-29T04:53:41.127Z,98543.94
2023-04-29T04:56:08.515Z,98543.31
2023-04-29T04:58:35.690Z,98546.66
2023-04-29T05:01:02.630Z,98550.53
2023-04-29T05:03:29.772Z,98550.53
2023-04-29T05:06:01.379Z,98555.50
2023-04-29T05:08:28.561Z,98566.72
2023-04-29T05:10:55.554Z,98565.75
2023-04-29T05:13:22.481Z,98573.28
2023-04-29T05:15:49.861Z,98570.72
2023-04-29T05:18:16.870Z,98571.84
2023-04-29T05:20:46.135Z,98580.47
2023-04-29T05:23:12.948Z,98578.22
2023-04-29T05:25:39.741Z,98579.06
2023-04-29T05:28:07.662Z,98585.28
2023-04-29T05:30:35.091Z,98581.44
2023-04-29T05:33:02.075Z,98585.13
2023-04-29T05:35:29.032Z,98585.59
2023-04-29T05:37:55.965Z,98584.97
2023-04-29T05:40:23.205Z,98587.69
2023-04-29T05:42:50.372Z,98594.72
2023-04-29T05:45:17.682Z,98602.25
2023-04-29T05:47:44.615Z,98600.16
2023-04-29T05:50:11.726Z,98603.88
2023-04-29T05:52:39.429Z,98606.13
2023-04-29T05:55:06.584Z,98608.66
2023-04-29T05:57:33.525Z,98611.06
2023-04-29T06:00:00.654Z,98614.44
2023-04-29T06:02:28.405Z,98617.31
2023-04-29T06:04:55.758Z,98619.41
2023-04-29T06:07:23.979Z,98632.69
2023-04-29T06:09:51.452Z,98633.81
2023-04-29T06:12:18.503Z,98631.72
2023-04-29T06:14:45.410Z,98632.84
2023-04-29T06:17:12.818Z,98637.34
2023-04-29T06:19:39.714Z,98640.22
2023-04-29T06:22:06.475Z,98641.81
2023-04-29T06:24:33.242Z,98644.84
2023-04-29T06:27:00.314Z,98649.53
2023-04-29T06:29:27.086Z,98655.28
2023-04-29T06:31:56.745Z,98653.66
2023-04-29T06:34:26.447Z,98666.53
2023-04-29T06:36:53.346Z,98655.63
2023-04-29T06:39:20.399Z,98662.50
2023-04-29T06:41:47.237Z,98672.44
2023-04-29T06:44:14.108Z,98672.91
2023-04-29T06:46:44.502Z,98667.41
2023-04-29T06:49:11.943Z,98669.00
2023-04-29T06:51:38.940Z,98674.81
2023-04-29T06:54:05.995Z,98681.22
2023-04-29T06:56:32.876Z,98682.97
2023-04-29T06:58:59.819Z,98674.31
2023-04-29T07:01:26.707Z,98680.41
2023-04-29T07:03:54.967Z,98693.06
2023-04-29T07:06:21.898Z,98682.03
2023-04-29T07:08:48.897Z,98693.59
2023-04-29T07:11:16.156Z,98691.97
2023-04-29T07:13:44.160Z,98692.28
2023-04-29T07:16:19.982Z,98700.47
2023-04-29T07:18:48.105Z,98705.56
2023-04-29T07:21:15.114Z,98710.56
2023-04-29T07:23:42.027Z,98720.34
2023-04-29T07:26:17.292Z,98718.91
2023-04-29T07:28:45.611Z,98722.28
2023-04-29T07:31:12.711Z,98720.84
2023-04-29T07:33:40.058Z,98726.78
2023-04-29T07:36:10.141Z,98731.09
2023-04-29T07:38:37.194Z,98730.78
2023-04-29T07:41:07.175Z,98725.66
2023-04-29T07:43:34.381Z,98729.00
2023-04-29T07:46:01.277Z,98737.97
2023-04-29T07:48:28.219Z,98729.81
2023-04-29T07:50:55.312Z,98741.66
2023-04-29T07:53:22.203Z,98743.09
2023-04-29T07:55:49.174Z,98742.31
2023-04-29T07:58:15.947Z,98739.41
2023-04-29T08:00:42.844Z,98745.03
2023-04-29T08:03:10.570Z,98744.72
2023-04-29T08:05:37.759Z,98741.38
2023-04-29T08:08:05.209Z,98750.34
2023-04-29T08:10:32.099Z,98752.44
2023-04-29T08:12:59.112Z,98759.00
2023-04-29T08:15:26.150Z,98756.44
2023-04-29T08:17:53.126Z,98759.97
2023-04-29T08:20:20.338Z,98768.00
2023-04-29T08:22:48.047Z,98763.78
2023-04-29T08:25:14.948Z,98763.00
2023-04-29T08:27:43.545Z,98766.38
2023-04-29T08:30:10.912Z,98760.59
2023-04-29T08:32:38.022Z,98761.53
2023-04-29T08:35:05.388Z,98758.00
2023-04-29T08:37:32.433Z,98762.50
2023-04-29T08:39:59.296Z,98764.59
2023-04-29T08:42:36.371Z,98768.09
2023-04-29T08:45:07.327Z,98771.94
2023-04-29T08:47:34.620Z,98772.59
2023-04-29T08:50:06.515Z,98773.88
2023-04-29T08:52:34.190Z,98775.53
2023-04-29T08:55:06.037Z,98772.63
2023-04-29T08:57:40.200Z,98773.09
2023-04-29T09:00:11.927Z,98784.34
2023-04-29T09:02:49.367Z,98778.38
2023-04-29T09:05:21.991Z,98782.06
2023-04-29T09:07:51.874Z,98785.28
2023-04-29T09:10:19.465Z,98781.44
2023-04-29T09:12:46.784Z,98785.44
2023-04-29T09:15:14.148Z,98790.72
2023-04-29T09:17:47.643Z,98793.94
2023-04-29T09:20:21.520Z,98781.44
2023-04-29T09:22:55.728Z,98776.94
2023-04-29T09:25:23.341Z,98799.69
2023-04-29T09:27:50.689Z,98797.94
2023-04-29T09:30:17.710Z,98795.50
2023-04-29T09:32:46.046Z,98798.06
2023-04-29T09:35:28.007Z,98798.56
2023-04-29T09:38:15.489Z,98797.94
2023-04-29T09:40:58.229Z,98800.50
2023-04-29T09:43:27.040Z,98804.69
2023-04-29T09:45:54.447Z,98807.09
2023-04-29T09:48:21.914Z,98802.91
2023-04-29T09:51:02.650Z,98810.31
2023-04-29T09:53:31.995Z,98805.16
2023-04-29T09:56:02.712Z,98807.75
2023-04-29T09:58:38.218Z,98808.06
2023-04-29T10:01:07.616Z,98808.84
2023-04-29T10:03:37.328Z,98801.13
2023-04-29T10:06:07.715Z,98805.50
2023-04-29T10:08:35.892Z,98804.50
2023-04-29T10:11:05.943Z,98809.31
2023-04-29T10:13:38.221Z,98807.53
2023-04-29T10:16:33.996Z,98801.13
2023-04-29T10:19:07.374Z,98807.53
2023-04-29T10:21:34.671Z,98799.78
2023-04-29T10:24:04.113Z,98795.28
2023-04-29T10:26:32.420Z,98801.63
2023-04-29T10:29:01.945Z,98804.91
2023-04-29T10:31:32.229Z,98799.19
2023-04-29T10:34:00.396Z,98807.50
2023-04-29T10:36:31.461Z,98792.50
2023-04-29T10:39:07.751Z,98794.44
2023-04-29T10:41:48.191Z,98786.63
2023-04-29T10:44:15.444Z,98787.75
2023-04-29T10:46:42.295Z,98781.63
2023-04-29T10:49:11.377Z,98789.03
2023-04-29T10:51:48.446Z,98796.44
2023-04-29T10:54:18.993Z,98795.22
2023-04-29T10:56:50.949Z,98792.66
2023-04-29T10:59:33.396Z,98788.13
2023-04-29T11:02:00.563Z,98789.13
2023-04-29T11:04:27.691Z,98792.97
2023-04-29T11:07:02.482Z,98790.06
2023-04-29T11:09:33.989Z,98784.75
2023-04-29T11:12:05.923Z,98786.97
2023-04-29T11:14:44.166Z,98779.38
2023-04-29T11:17:16.238Z,98787.00
2023-04-29T11:19:47.457Z,98784.66
2023-04-29T11:22:23.315Z,98786.63
2023-04-29T11:24:50.949Z,98783.63
2023-04-29T11:27:20.505Z,98792.19
2023-04-29T11:29:50.064Z,98785.16
2023-04-29T11:32:21.458Z,98786.94
2023-04-29T11:34:48.401Z,98789.34
2023-04-29T11:37:24.986Z,98797.72
2023-04-29T11:39:54.045Z,98800.63
2023-04-29T11:42:22.523Z,98802.88
2023-04-29T11:44:56.826Z,98803.38
2023-04-29T11:47:29.586Z,98809.16
2023-04-29T11:50:08.910Z,98812.69
2023-04-29T11:52:42.882Z,98810.44
2023-04-29T11:55:11.719Z,98810.31
2023-04-29T11:57:40.298Z,98811.56
2023-04-29T12:00:12.961Z,98808.53
2023-04-29T12:02:44.864Z,98818.63
2023-04-29T12:05:17.491Z,98815.75
2023-04-29T12:07:44.689Z,98814.63
2023-04-29T12:10:12.718Z,98812.69
2023-04-29T12:12:43.253Z,98811.56
2023-04-29T12:15:10.948Z,98816.69
2023-04-29T12:17:39.432Z,98815.03
2023-04-29T12:20:11.168Z,98822.09
2023-04-29T12:22:38.561Z,98823.47
2023-04-29T12:25:07.320Z,98817.34
2023-04-29T12:27:37.013Z,98823.28
2023-04-29T12:30:09.366Z,98821.00
2023-04-29T12:32:37.151Z,98821.19
2023-04-29T12:35:04.795Z,98823.94
2023-04-29T12:37:33.230Z,98816.06
2023-04-29T12:40:00.152Z,98817.22
2023-04-29T12:42:34.045Z,98829.47
2023-04-29T12:45:00.901Z,98823.53
2023-04-29T12:47:36.971Z,98824.00
2023-04-29T12:50:07.089Z,98830.25
2023-04-29T12:52:36.396Z,98833.63
2023-04-29T12:55:04.688Z,98827.69
2023-04-29T12:57:31.922Z,98834.75
2023-04-29T12:59:58.878Z,98837.66
2023-04-29T13:02:26.424Z,98836.06
2023-04-29T13:04:53.699Z,98836.22
2023-04-29T13:07:20.994Z,98839.44
2023-04-29T13:09:48.266Z,98839.75
2023-04-29T13:12:15.476Z,98846.69
2023-04-29T13:14:42.371Z,98840.72
2023-04-29T13:17:10.695Z,98845.03
2023-04-29T13:19:50.666Z,98842.31
2023-04-29T13:22:19.126Z,98838.28
2023-04-29T13:24:46.915Z,98847.47
2023-04-29T13:27:14.261Z,98844.09
2023-04-29T13:29:41.315Z,98845.53
2023-04-29T13:32:09.086Z,98845.84
2023-04-29T13:34:36.534Z,98847.94
2023-04-29T13:37:03.805Z,98846.34
2023-04-29T13:39:31.624Z,98848.75
2023-04-29T13:41:59.781Z,98850.81
2023-04-29T13:44:34.314Z,98856.44
2023-04-29T13:47:20.026Z,98852.47
2023-04-29T13:58:13.358Z,98863.53
2023-04-29T14:00:38.252Z,98862.41
2023-04-29T14:03:03.450Z,98866.75
2023-04-29T14:05:30.832Z,98866.25
2023-04-29T14:07:57.851Z,98861.59
2023-04-29T14:10:27.570Z,98869.00
2023-04-29T14:12:54.920Z,98863.19
2023-04-29T14:15:21.760Z,98863.66
2023-04-29T14:17:50.320Z,98871.06
2023-04-29T14:20:17.375Z,98868.34
2023-04-29T14:22:44.653Z,98862.41
2023-04-29T14:25:12.429Z,98867.19
2023-04-29T14:27:39.388Z,98859.34
2023-04-29T14:30:07.530Z,98862.84
2023-04-29T14:32:34.648Z,98863.53
2023-04-29T14:35:01.554Z,98872.69
2023-04-29T14:37:28.521Z,98869.00
2023-04-29T14:39:55.480Z,98879.09
2023-04-29T14:42:22.442Z,98874.75
2023-04-29T14:44:49.391Z,98873.81
2023-04-29T14:47:16.782Z,98883.44
2023-04-29T14:49:43.785Z,98882.78
2023-04-29T14:52:10.771Z,98884.69
2023-04-29T14:54:38.115Z,98888.25
2023-04-29T14:57:08.083Z,98887.63
2023-04-29T14:59:38.859Z,98889.53
2023-04-29T15:02:06.027Z,98894.19
2023-04-29T15:04:32.949Z,98891.28
2023-04-29T15:07:02.452Z,98890.66
2023-04-29T15:09:32.163Z,98895.00
2023-04-29T15:12:02.059Z,98900.63
2023-04-29T15:14:28.928Z,98900.94
2023-04-29T15:16:56.012Z,98905.13
2023-04-29T15:19:26.366Z,98905.44
2023-04-29T15:21:53.368Z,98905.28
2023-04-29T15:24:21.339Z,98906.59
2023-04-29T15:26:48.285Z,98903.19
2023-04-29T15:29:18.562Z,98900.47
2023-04-29T15:31:49.557Z,98905.28
2023-04-29T15:34:16.403Z,98906.09
2023-04-29T15:36:50.935Z,98908.19
2023-04-29T15:39:17.875Z,98911.22
2023-04-29T15:41:44.683Z,98906.41
2023-04-29T15:44:13.998Z,98920.84
2023-04-29T15:46:44.004Z,98918.44
2023-04-29T15:49:12.360Z,98917.47
2023-04-29T15:51:39.641Z,98927.44
2023-04-29T15:54:07.992Z,98920.72
2023-04-29T15:56:34.864Z,98921.84
2023-04-29T15:59:01.779Z,98925.03
2023-04-29T16:01:28.881Z,98932.91
2023-04-29T16:03:55.950Z,98936.41
2023-04-29T16:06:23.230Z,98930.19
2023-04-29T16:08:50.226Z,98931.78
2023-04-29T16:11:17.008Z,98930.19
2023-04-29T16:13:44.339Z,98930.00
2023-04-29T16:16:11.229Z,98933.84
2023-04-29T16:18:39.147Z,98933.84
2023-04-29T16:21:06.254Z,98928.88
2023-04-29T16:23:33.107Z,98929.69
2023-04-29T16:26:01.319Z,98931.78
2023-04-29T16:28:30.997Z,98938.19
2023-04-29T16:31:00.452Z,98939.16
2023-04-29T16:33:27.363Z,98932.59
2023-04-29T16:35:54.414Z,98931.28
2023-04-29T16:38:23.015Z,98935.47
2023-04-29T16:40:50.945Z,98939.97
2023-04-29T16:43:20.702Z,98933.53
2023-04-29T16:45:47.521Z,98932.88
2023-04-29T16:48:14.417Z,98923.72
2023-04-29T16:50:41.364Z,98932.38
2023-04-29T16:53:08.169Z,98940.09
2023-04-29T16:55:35.010Z,98931.91
2023-04-29T16:58:01.807Z,98929.19
2023-04-29T17:00:28.807Z,98940.41
2023-04-29T17:02:58.343Z,98934.78
2023-04-29T17:05:26.427Z,98933.66
2023-04-29T17:07:55.065Z,98935.09
2023-04-29T17:10:24.899Z,98935.25
2023-04-29T17:12:51.736Z,98940.22
2023-04-29T17:15:18.543Z,98937.19
2023-04-29T17:17:46.529Z,98945.66
2023-04-29T17:20:13.826Z,98943.75
2023-04-29T17:22:41.930Z,98946.97
2023-04-29T17:25:10.435Z,98949.22
2023-04-29T17:27:37.458Z,98946.78
2023-04-29T17:30:06.189Z,98951.44
2023-04-29T17:32:38.991Z,98948.88
2023-04-29T17:35:07.631Z,98950.97
2023-04-29T17:37:35.436Z,98952.56
2023-04-29T17:40:03.309Z,98954.47
2023-04-29T17:42:30.149Z,98954.19
2023-04-29T17:44:57.020Z,98945.81
2023-04-29T17:47:24.016Z,98948.38
2023-04-29T17:49:52.091Z,98951.13
2023-04-29T17:52:21.320Z,98957.34
2023-04-29T17:54:48.780Z,98953.66
2023-04-29T17:57:15.696Z,98948.00
2023-04-29T17:59:42.504Z,98950.91
2023-04-29T18:02:10.708Z,98957.50
2023-04-29T18:04:37.562Z,98957.16
2023-04-29T18:07:04.413Z,98958.28
2023-04-29T18:09:33.028Z,98954.28
2023-04-29T18:12:00.139Z,98960.84
2023-04-29T18:14:29.026Z,98959.53
2023-04-29T18:16:56.537Z,98958.56
2023-04-29T18:19:23.328Z,98960.50
2023-04-29T18:21:50.725Z,98958.56
2023-04-29T18:24:17.628Z,98965.47
2023-04-29T18:26:45.099Z,98962.72
2023-04-29T18:29:12.278Z,98959.38
2023-04-29T18:31:39.227Z,98968.69
2023-04-29T18:34:06.196Z,98966.09
2023-04-29T18:36:34.339Z,98959.19
2023-04-29T18:39:01.330Z,98967.69
2023-04-29T18:41:28.225Z,98959.34
2023-04-29T18:43:55.255Z,98969.72
2023-04-29T18:46:22.303Z,98967.63
2023-04-29T18:48:49.139Z,98964.72
2023-04-29T18:51:16.257Z,98965.03
2023-04-29T18:53:43.136Z,98963.75
2023-04-29T18:56:10.129Z,98974.94
2023-04-29T18:58:37.030Z,98977.88
2023-04-29T19:01:03.936Z,98981.69
2023-04-29T19:03:31.504Z,98981.38
2023-04-29T19:05:58.285Z,98988.28
2023-04-29T19:08:26.155Z,98994.44
2023-04-29T19:10:54.063Z,98989.09
2023-04-29T19:13:21.125Z,98988.84
2023-04-29T19:15:50.826Z,98985.28
2023-04-29T19:18:23.008Z,98995.47
2023-04-29T19:20:50.461Z,98990.22
2023-04-29T19:23:17.344Z,98991.84
2023-04-29T19:25:44.121Z,98990.22
2023-04-29T19:28:10.945Z,98999.75
2023-04-29T19:30:39.225Z,99006.72
2023-04-29T19:33:06.040Z,99002.59
2023-04-29T19:35:32.933Z,99005.63
2023-04-29T19:37:59.752Z,99008.94
2023-04-29T19:40:27.154Z,99016.00
2023-04-29T19:42:54.241Z,99010.88
2023-04-29T19:45:21.478Z,99015.91
2023-04-29T19:47:49.861Z,99014.03
2023-04-29T19:50:16.745Z,99017.81
2023-04-29T19:52:43.596Z,99020.31
2023-04-29T19:55:10.793Z,99016.31
2023-04-29T19:57:38.789Z,99017.31
2023-04-29T20:00:06.835Z,99019.25
2023-04-29T20:02:33.954Z,99021.66
2023-04-29T20:05:03.835Z,99023.47
2023-04-29T20:07:30.926Z,99029.41
2023-04-29T20:09:57.825Z,99021.16
2023-04-29T20:12:24.647Z,99023.97
2023-04-29T20:14:51.949Z,99027.81
2023-04-29T20:17:18.851Z,99035.16
2023-04-29T20:19:46.068Z,99028.41
2023-04-29T20:22:13.553Z,99029.53
2023-04-29T20:24:41.332Z,99036.47
2023-04-29T20:27:08.432Z,99035.97
2023-04-29T20:29:35.447Z,99030.72
2023-04-29T20:32:02.761Z,99038.56
2023-04-29T20:34:29.763Z,99030.84
2023-04-29T20:36:56.757Z,99033.06
2023-04-29T20:39:25.069Z,99030.53
2023-04-29T20:41:51.873Z,99037.56
2023-04-29T20:44:19.106Z,99038.50
2023-04-29T20:46:46.008Z,99039.09
2023-04-29T20:49:13.276Z,99038.78
2023-04-29T20:51:40.414Z,99040.09
2023-04-29T20:54:07.190Z,99036.75
2023-04-29T20:56:34.541Z,99043.56
2023-04-29T20:59:02.970Z,99043.06
2023-04-29T21:01:30.059Z,99043.00
2023-04-29T21:03:59.796Z,99048.22
2023-04-29T21:06:27.600Z,99052.44
2023-04-29T21:08:54.500Z,99049.22
2023-04-29T21:11:21.328Z,99049.03
2023-04-29T21:13:50.274Z,99044.28
2023-04-29T21:16:18.748Z,99049.22
2023-04-29T21:18:45.953Z,99041.56
2023-04-29T21:21:12.830Z,99045.38
2023-04-29T21:23:39.549Z,99040.56
2023-04-29T21:26:06.454Z,99038.84
2023-04-29T21:28:36.236Z,99035.91
2023-04-29T21:31:03.262Z,99045.19
2023-04-29T21:33:30.128Z,99041.06
2023-04-29T21:35:57.269Z,99047.78
2023-04-29T21:38:26.899Z,99047.78
2023-04-29T21:40:53.855Z,99055.16
2023-04-29T21:43:20.729Z,99047.19
2023-04-29T21:45:48.441Z,99044.38
2023-04-29T21:48:18.489Z,99053.03
2023-04-29T21:50:48.268Z,99051.75
2023-04-29T21:53:16.563Z,99054.56
2023-04-29T21:55:43.892Z,99057.06
2023-04-29T21:58:11.493Z,99049.59
2023-04-29T22:00:41.002Z,99053.13
2023-04-29T22:03:10.277Z,99051.72
2023-04-29T22:05:37.707Z,99053.94
2023-04-29T22:08:08.250Z,99049.00
2023-04-29T22:10:35.176Z,99051.22
2023-04-29T22:13:02.058Z,99048.41
2023-04-29T22:15:31.436Z,99045.19
2023-04-29T22:17:58.423Z,99046.88
2023-04-29T22:20:26.221Z,99051.63
2023-04-29T22:22:54.275Z,99053.22
2023-04-29T22:25:21.874Z,99057.66
2023-04-29T22:27:50.254Z,99060.09
2023-04-29T22:30:17.844Z,99062.06
2023-04-29T22:32:45.036Z,99068.03
2023-04-29T22:35:12.244Z,99064.28
2023-04-29T22:37:39.105Z,99065.50
2023-04-29T22:40:11.546Z,99060.06
2023-04-29T22:42:39.630Z,99059.47
2023-04-29T22:45:07.417Z,99064.09
2023-04-29T22:47:34.305Z,99060.56
2023-04-29T22:50:03.013Z,99063.69
2023-04-29T22:52:30.195Z,99057.16
2023-04-29T22:54:56.969Z,99058.84
2023-04-29T22:57:23.842Z,99057.00
2023-04-29T22:59:56.347Z,99063.03
2023-04-29T23:02:29.199Z,99064.66
2023-04-29T23:04:56.919Z,99064.28
2023-04-29T23:07:25.719Z,99064.78
2023-04-29T23:09:53.274Z,99064.06
2023-04-29T23:12:21.456Z,99063.47
2023-04-29T23:14:48.573Z,99062.88
2023-04-29T23:17:17.378Z,99064.56
2023-04-29T23:19:44.298Z,99063.78
2023-04-29T23:22:11.213Z,99071.19
2023-04-29T23:24:38.203Z,99067.38
2023-04-29T23:27:07.013Z,99068.69
2023-04-29T23:29:34.317Z,99063.53
2023-04-29T23:32:01.687Z,99073.91
2023-04-29T23:34:28.738Z,99076.94
2023-04-29T23:36:55.553Z,99079.94
2023-04-29T23:39:24.547Z,99078.75
2023-04-29T23:41:52.572Z,99076.53
2023-04-29T23:44:19.490Z,99081.78
2023-04-29T23:46:46.405Z,99082.38
2023-04-29T23:49:13.319Z,99083.06
2023-04-29T23:51:40.831Z,99085.78
2023-04-29T23:54:07.996Z,99080.94
2023-04-29T23:56:35.001Z,99078.22
2023-04-29T23:59:04.447Z,99072.00
